createdAt,value
2017-12-01T00:00:37.890Z,1001.63
2017-12-01T00:01:38.326Z,1001.61
2017-12-01T00:03:33.768Z,1001.69
2017-12-01T00:04:33.723Z,1001.66
2017-12-01T00:06:30.668Z,1001.73
2017-12-01T00:07:29.677Z,1001.71
2017-12-01T00:09:24.609Z,1001.76
2017-12-01T00:10:24.076Z,1001.78
2017-12-01T00:12:20.042Z,1001.79
2017-12-01T00:13:19.975Z,1001.81
2017-12-01T00:15:14.428Z,1001.83
2017-12-01T00:16:14.400Z,1001.85
2017-12-01T00:18:10.857Z,1001.86
2017-12-01T00:19:10.348Z,1001.87
2017-12-01T00:21:05.300Z,1001.90
2017-12-01T00:22:04.765Z,1001.87
2017-12-01T00:24:00.749Z,1001.89
2017-12-01T00:25:00.692Z,1001.90
2017-12-01T00:26:57.656Z,1001.93
2017-12-01T00:27:56.605Z,1001.93
2017-12-01T00:29:52.561Z,1001.92
2017-12-01T00:30:53.065Z,1001.92
2017-12-01T00:32:45.983Z,1001.93
2017-12-01T00:33:45.969Z,1001.95
2017-12-01T00:35:41.897Z,1001.91
2017-12-01T00:36:41.893Z,1001.93
2017-12-01T00:38:36.832Z,1001.94
2017-12-01T00:39:36.331Z,1001.94
2017-12-01T00:41:30.738Z,1001.95
2017-12-01T00:42:30.783Z,1001.96
2017-12-01T00:44:25.206Z,1001.98
2017-12-01T00:45:25.710Z,1001.94
2017-12-01T00:47:21.091Z,1001.95
2017-12-01T00:48:21.087Z,1001.98
2017-12-01T00:50:17.039Z,1002.01
2017-12-01T00:51:17.004Z,1002.05
2017-12-01T00:53:13.459Z,1002.02
2017-12-01T00:54:11.412Z,1002.03
2017-12-01T00:56:07.390Z,1002.06
2017-12-01T00:57:07.863Z,1002.05
2017-12-01T00:59:03.281Z,1002.09
2017-12-01T01:00:03.278Z,1002.13
2017-12-01T01:01:59.239Z,1002.10
2017-12-01T01:02:59.727Z,1002.11
2017-12-01T01:04:52.648Z,1002.13
2017-12-01T01:05:52.630Z,1002.15
2017-12-01T01:07:50.593Z,1002.21
2017-12-01T01:08:48.566Z,1002.27
2017-12-01T01:10:45.509Z,1002.28
2017-12-01T01:11:45.033Z,1002.31
2017-12-01T01:13:40.429Z,1002.30
2017-12-01T01:14:40.955Z,1002.31
2017-12-01T01:16:33.898Z,1002.35
2017-12-01T01:17:33.852Z,1002.38
2017-12-01T01:19:30.805Z,1002.43
2017-12-01T01:20:29.765Z,1002.45
2017-12-01T01:22:28.715Z,1002.48
2017-12-01T01:23:28.223Z,1002.51
2017-12-01T01:25:24.613Z,1002.55
2017-12-01T01:26:23.594Z,1002.52
2017-12-01T01:28:20.044Z,1002.53
2017-12-01T01:29:19.509Z,1002.59
2017-12-01T01:31:15.959Z,1002.59
2017-12-01T01:32:15.435Z,1002.58
2017-12-01T01:34:11.881Z,1002.56
2017-12-01T01:35:11.379Z,1002.60
2017-12-01T01:37:07.292Z,1002.59
2017-12-01T01:38:07.294Z,1002.59
2017-12-01T01:40:04.239Z,1002.60
2017-12-01T01:41:03.248Z,1002.63
2017-12-01T01:42:59.182Z,1002.62
2017-12-01T01:43:59.153Z,1002.64
2017-12-01T01:45:55.076Z,1002.63
2017-12-01T01:46:55.603Z,1002.68
2017-12-01T01:48:51.532Z,1002.66
2017-12-01T01:49:51.012Z,1002.63
2017-12-01T01:51:46.935Z,1002.68
2017-12-01T01:52:47.442Z,1002.69
2017-12-01T01:54:41.395Z,1002.75
2017-12-01T01:55:41.871Z,1002.73
2017-12-01T01:57:37.317Z,1002.79
2017-12-01T01:58:35.789Z,1002.80
2017-12-01T02:00:34.741Z,1002.82
2017-12-01T02:01:33.819Z,1002.81
2017-12-01T02:03:29.784Z,1002.83
2017-12-01T02:04:30.281Z,1002.78
2017-12-01T02:06:27.728Z,1002.80
2017-12-01T02:07:25.663Z,1002.81
2017-12-01T02:09:22.611Z,1002.87
2017-12-01T02:10:21.593Z,1002.88
2017-12-01T02:12:17.508Z,1002.88
2017-12-01T02:13:17.513Z,1002.86
2017-12-01T02:15:15.450Z,1002.90
2017-12-01T02:16:13.443Z,1002.87
2017-12-01T02:18:10.388Z,1002.92
2017-12-01T02:19:09.373Z,1002.92
2017-12-01T02:21:05.323Z,1002.94
2017-12-01T02:22:05.306Z,1002.94
2017-12-01T02:24:01.248Z,1002.98
2017-12-01T02:25:01.741Z,1002.97
2017-12-01T02:26:57.675Z,1003.00
2017-12-01T02:27:57.666Z,1003.01
2017-12-01T02:29:53.120Z,1003.03
2017-12-01T02:30:53.608Z,1003.07
2017-12-01T02:32:48.053Z,1003.04
2017-12-01T02:33:47.492Z,1003.07
2017-12-01T02:35:43.954Z,1003.05
2017-12-01T02:36:43.439Z,1003.03
2017-12-01T02:38:39.389Z,1003.13
2017-12-01T02:39:39.370Z,1003.13
2017-12-01T02:41:35.806Z,1003.15
2017-12-01T02:42:35.329Z,1003.19
2017-12-01T02:44:31.749Z,1003.20
2017-12-01T02:45:31.213Z,1003.19
2017-12-01T02:47:27.176Z,1003.20
2017-12-01T02:48:27.123Z,1003.25
2017-12-01T02:50:22.083Z,1003.22
2017-12-01T02:51:21.551Z,1003.31
2017-12-01T02:53:15.032Z,1003.32
2017-12-01T02:54:15.517Z,1003.31
2017-12-01T02:56:10.953Z,1003.33
2017-12-01T02:57:10.909Z,1003.36
2017-12-01T02:59:05.348Z,1003.31
2017-12-01T03:00:05.872Z,1003.32
2017-12-01T03:02:01.289Z,1003.33
2017-12-01T03:03:01.269Z,1003.35
2017-12-01T03:04:55.714Z,1003.35
2017-12-01T03:05:55.680Z,1003.38
2017-12-01T03:07:51.592Z,1003.40
2017-12-01T03:08:51.594Z,1003.43
2017-12-01T03:10:48.555Z,1003.45
2017-12-01T03:11:46.033Z,1003.41
2017-12-01T03:13:41.479Z,1003.47
2017-12-01T03:14:40.462Z,1003.48
2017-12-01T03:16:36.411Z,1003.48
2017-12-01T03:17:36.395Z,1003.51
2017-12-01T03:19:32.308Z,1003.51
2017-12-01T03:20:32.318Z,1003.54
2017-12-01T03:22:28.232Z,1003.56
2017-12-01T03:23:28.223Z,1003.58
2017-12-01T03:25:22.664Z,1003.53
2017-12-01T03:26:21.634Z,1003.47
2017-12-01T03:28:18.573Z,1003.50
2017-12-01T03:29:17.573Z,1003.50
2017-12-01T03:31:12.026Z,1003.52
2017-12-01T03:32:12.510Z,1003.54
2017-12-01T03:34:07.925Z,1003.55
2017-12-01T03:35:08.436Z,1003.60
2017-12-01T03:37:03.873Z,1003.62
2017-12-01T03:38:03.837Z,1003.62
2017-12-01T03:39:58.273Z,1003.66
2017-12-01T03:40:58.320Z,1003.67
2017-12-01T03:42:54.749Z,1003.67
2017-12-01T03:43:54.728Z,1003.73
2017-12-01T03:45:50.140Z,1003.75
2017-12-01T03:46:50.119Z,1003.71
2017-12-01T03:48:46.060Z,1003.81
2017-12-01T03:49:44.527Z,1003.84
2017-12-01T03:51:40.449Z,1003.83
2017-12-01T03:52:40.461Z,1003.87
2017-12-01T03:54:36.403Z,1003.92
2017-12-01T03:55:36.390Z,1003.89
2017-12-01T03:57:32.371Z,1003.92
2017-12-01T03:58:32.831Z,1003.99
2017-12-01T04:00:27.274Z,1003.99
2017-12-01T04:01:26.751Z,1004.01
2017-12-01T04:03:22.681Z,1003.98
2017-12-01T04:04:22.656Z,1004.02
2017-12-01T04:06:16.101Z,1004.00
2017-12-01T04:07:16.087Z,1004.07
2017-12-01T04:09:13.558Z,1004.06
2017-12-01T04:10:12.009Z,1004.07
2017-12-01T04:12:08.963Z,1004.12
2017-12-01T04:13:07.983Z,1004.12
2017-12-01T04:15:04.415Z,1004.14
2017-12-01T04:16:04.395Z,1004.18
2017-12-01T04:18:00.333Z,1004.20
2017-12-01T04:18:59.816Z,1004.23
2017-12-01T04:20:55.779Z,1004.23
2017-12-01T04:21:55.757Z,1004.23
2017-12-01T04:23:52.687Z,1004.25
2017-12-01T04:24:51.660Z,1004.25
2017-12-01T04:26:47.598Z,1004.25
2017-12-01T04:27:47.583Z,1004.26
2017-12-01T04:29:43.545Z,1004.29
2017-12-01T04:30:43.515Z,1004.30
2017-12-01T04:32:37.929Z,1004.37
2017-12-01T04:33:38.467Z,1004.39
2017-12-01T04:35:33.842Z,1004.44
2017-12-01T04:36:34.389Z,1004.44
2017-12-01T04:38:30.792Z,1004.48
2017-12-01T04:39:29.793Z,1004.47
2017-12-01T04:41:24.240Z,1004.54
2017-12-01T04:42:24.234Z,1004.51
2017-12-01T04:44:20.160Z,1004.53
2017-12-01T04:45:20.132Z,1004.51
2017-12-01T04:47:16.058Z,1004.57
2017-12-01T04:48:16.064Z,1004.59
2017-12-01T04:50:15.512Z,1004.62
2017-12-01T04:51:13.994Z,1004.65
2017-12-01T04:53:08.432Z,1004.67
2017-12-01T04:54:08.960Z,1004.71
2017-12-01T04:56:04.864Z,1004.72
2017-12-01T04:57:04.568Z,1004.79
2017-12-01T04:58:59.024Z,1004.81
2017-12-01T04:59:59.017Z,1004.79
2017-12-01T05:01:54.991Z,1004.86
2017-12-01T05:02:55.476Z,1004.87
2017-12-01T05:04:50.865Z,1004.91
2017-12-01T05:05:50.865Z,1004.88
2017-12-01T05:07:47.322Z,1004.88
2017-12-01T05:08:46.798Z,1004.92
2017-12-01T05:10:42.736Z,1004.93
2017-12-01T05:11:42.725Z,1004.94
2017-12-01T05:13:38.690Z,1004.93
2017-12-01T05:14:38.657Z,1004.92
2017-12-01T05:16:34.627Z,1004.94
2017-12-01T05:17:34.575Z,1004.96
2017-12-01T05:19:30.572Z,1005.04
2017-12-01T05:20:30.517Z,1005.02
2017-12-01T05:22:26.961Z,1005.05
2017-12-01T05:23:26.417Z,1005.09
2017-12-01T05:25:22.887Z,1005.11
2017-12-01T05:26:22.352Z,1005.18
2017-12-01T05:28:18.261Z,1005.25
2017-12-01T05:29:18.278Z,1005.28
2017-12-01T05:31:14.190Z,1005.24
2017-12-01T05:32:14.193Z,1005.26
2017-12-01T05:34:10.161Z,1005.26
2017-12-01T05:35:11.560Z,1005.27
2017-12-01T05:37:06.559Z,1005.35
2017-12-01T05:38:06.070Z,1005.38
2017-12-01T05:40:02.512Z,1005.40
2017-12-01T05:41:02.498Z,1005.43
2017-12-01T05:42:57.902Z,1005.46
2017-12-01T05:43:57.891Z,1005.49
2017-12-01T05:45:53.864Z,1005.50
2017-12-01T05:46:54.332Z,1005.45
2017-12-01T05:48:51.733Z,1005.49
2017-12-01T05:49:51.720Z,1005.58
2017-12-01T05:51:48.189Z,1005.54
2017-12-01T05:52:48.192Z,1005.64
2017-12-01T05:54:44.160Z,1005.65
2017-12-01T05:55:43.636Z,1005.65
2017-12-01T05:57:38.089Z,1005.65
2017-12-01T05:58:37.070Z,1005.69
2017-12-01T06:00:33.031Z,1005.68
2017-12-01T06:01:33.039Z,1005.68
2017-12-01T06:03:28.982Z,1005.73
2017-12-01T06:04:28.964Z,1005.73
2017-12-01T06:06:23.370Z,1005.74
2017-12-01T06:07:23.386Z,1005.78
2017-12-01T06:09:19.831Z,1005.81
2017-12-01T06:10:19.345Z,1005.85
2017-12-01T06:12:15.764Z,1005.95
2017-12-01T06:13:15.285Z,1005.95
2017-12-01T06:15:11.659Z,1006.04
2017-12-01T06:16:09.710Z,1006.02
2017-12-01T06:18:05.673Z,1006.03
2017-12-01T06:19:05.655Z,1006.02
2017-12-01T06:21:01.079Z,1006.05
2017-12-01T06:22:00.119Z,1006.03
2017-12-01T06:23:56.548Z,1006.06
2017-12-01T06:24:56.545Z,1006.06
2017-12-01T06:26:51.984Z,1006.15
2017-12-01T06:27:51.953Z,1006.12
2017-12-01T06:29:48.414Z,1006.20
2017-12-01T06:30:48.827Z,1006.19
2017-12-01T06:32:43.768Z,1006.22
2017-12-01T06:33:43.805Z,1006.22
2017-12-01T06:35:38.223Z,1006.28
2017-12-01T06:36:38.205Z,1006.26
2017-12-01T06:38:35.152Z,1006.31
2017-12-01T06:39:34.132Z,1006.31
2017-12-01T06:41:27.559Z,1006.40
2017-12-01T06:42:27.591Z,1006.46
2017-12-01T06:44:24.024Z,1006.46
2017-12-01T06:45:23.481Z,1006.45
2017-12-01T06:47:18.429Z,1006.50
2017-12-01T06:48:17.944Z,1006.53
2017-12-01T06:50:13.856Z,1006.54
2017-12-01T06:51:13.852Z,1006.56
2017-12-01T06:53:08.782Z,1006.55
2017-12-01T06:54:08.802Z,1006.59
2017-12-01T06:56:04.184Z,1006.58
2017-12-01T06:57:04.155Z,1006.67
2017-12-01T06:58:58.626Z,1006.66
2017-12-01T06:59:59.109Z,1006.70
2017-12-01T07:01:54.559Z,1006.75
2017-12-01T07:02:54.521Z,1006.74
2017-12-01T07:04:50.471Z,1006.75
2017-12-01T07:05:50.452Z,1006.78
2017-12-01T07:07:48.420Z,1006.85
2017-12-01T07:08:48.406Z,1006.84
2017-12-01T07:10:44.350Z,1006.92
2017-12-01T07:11:44.350Z,1006.90
2017-12-01T07:13:40.241Z,1007.00
2017-12-01T07:14:40.241Z,1007.07
2017-12-01T07:16:36.184Z,1007.07
2017-12-01T07:17:36.666Z,1007.14
2017-12-01T07:19:29.574Z,1007.16
2017-12-01T07:20:30.100Z,1007.18
2017-12-01T07:22:28.532Z,1007.23
2017-12-01T07:23:27.579Z,1007.17
2017-12-01T07:25:24.043Z,1007.19
2017-12-01T07:26:23.537Z,1007.21
2017-12-01T07:28:19.488Z,1007.24
2017-12-01T07:29:19.450Z,1007.27
2017-12-01T07:31:15.435Z,1007.31
2017-12-01T07:32:15.904Z,1007.33
2017-12-01T07:34:11.333Z,1007.38
2017-12-01T07:35:11.315Z,1007.41
2017-12-01T07:37:07.297Z,1007.42
2017-12-01T07:38:07.268Z,1007.42
2017-12-01T07:40:03.229Z,1007.42
2017-12-01T07:41:03.208Z,1007.41
2017-12-01T07:42:58.669Z,1007.41
2017-12-01T07:43:57.644Z,1007.47
2017-12-01T07:45:54.601Z,1007.55
2017-12-01T07:46:53.561Z,1007.54
2017-12-01T07:48:49.518Z,1007.56
2017-12-01T07:49:49.481Z,1007.55
2017-12-01T07:51:44.929Z,1007.57
2017-12-01T07:52:43.929Z,1007.62
2017-12-01T07:54:39.891Z,1007.67
2017-12-01T07:55:39.862Z,1007.61
2017-12-01T07:57:34.283Z,1007.69
2017-12-01T07:58:34.292Z,1007.72
2017-12-01T08:00:28.739Z,1007.74
2017-12-01T08:01:28.695Z,1007.76
2017-12-01T08:03:23.145Z,1007.74
2017-12-01T08:04:23.132Z,1007.74
2017-12-01T08:06:20.600Z,1007.81
2017-12-01T08:07:19.075Z,1007.81
2017-12-01T08:09:15.053Z,1007.84
2017-12-01T08:10:15.025Z,1007.89
2017-12-01T08:12:11.452Z,1007.95
2017-12-01T08:13:10.932Z,1007.98
2017-12-01T08:15:06.868Z,1008.03
2017-12-01T08:16:06.852Z,1008.04
2017-12-01T08:18:03.823Z,1008.07
2017-12-01T08:19:02.791Z,1008.12
2017-12-01T08:20:59.244Z,1008.10
2017-12-01T08:21:58.706Z,1008.09
2017-12-01T08:23:54.665Z,1008.14
2017-12-01T08:24:54.625Z,1008.18
2017-12-01T08:26:50.603Z,1008.26
2017-12-01T08:27:50.572Z,1008.29
2017-12-01T08:29:46.522Z,1008.35
2017-12-01T08:30:46.499Z,1008.36
2017-12-01T08:32:42.410Z,1008.39
2017-12-01T08:33:43.041Z,1008.38
2017-12-01T08:35:38.373Z,1008.40
2017-12-01T08:36:38.319Z,1008.36
2017-12-01T08:38:34.248Z,1008.38
2017-12-01T08:39:34.763Z,1008.41
2017-12-01T08:41:28.648Z,1008.45
2017-12-01T08:42:29.191Z,1008.41
2017-12-01T08:44:26.643Z,1008.48
2017-12-01T08:45:24.584Z,1008.45
2017-12-01T08:47:20.552Z,1008.49
2017-12-01T08:48:20.536Z,1008.49
2017-12-01T08:50:13.990Z,1008.50
2017-12-01T08:51:14.532Z,1008.53
2017-12-01T08:53:09.352Z,1008.60
2017-12-01T08:54:08.386Z,1008.61
2017-12-01T08:56:04.834Z,1008.69
2017-12-01T08:57:04.315Z,1008.68
2017-12-01T08:59:00.757Z,1008.75
2017-12-01T09:00:00.279Z,1008.72
2017-12-01T09:01:56.179Z,1008.77
2017-12-01T09:02:56.178Z,1008.76
2017-12-01T09:04:53.146Z,1008.77
2017-12-01T09:05:52.119Z,1008.78
2017-12-01T09:07:46.586Z,1008.82
2017-12-01T09:08:46.535Z,1008.87
2017-12-01T09:10:42.998Z,1008.89
2017-12-01T09:11:42.467Z,1008.89
2017-12-01T09:13:38.406Z,1008.92
2017-12-01T09:14:38.401Z,1008.92
2017-12-01T09:16:34.849Z,1008.96
2017-12-01T09:17:34.913Z,1008.96
2017-12-01T09:19:30.256Z,1008.93
2017-12-01T09:20:30.255Z,1008.96
2017-12-01T09:22:26.700Z,1008.95
2017-12-01T09:23:26.173Z,1008.98
2017-12-01T09:25:22.116Z,1009.01
2017-12-01T09:26:22.115Z,1009.03
2017-12-01T09:28:18.567Z,1009.05
2017-12-01T09:29:18.978Z,1009.06
2017-12-01T09:31:12.472Z,1009.10
2017-12-01T09:32:12.982Z,1009.12
2017-12-01T09:34:05.912Z,1009.14
2017-12-01T09:35:05.901Z,1009.21
2017-12-01T09:37:01.868Z,1009.24
2017-12-01T09:38:01.840Z,1009.23
2017-12-01T09:39:58.304Z,1009.29
2017-12-01T09:40:57.776Z,1009.31
2017-12-01T09:42:54.717Z,1009.34
2017-12-01T09:43:53.679Z,1009.36
2017-12-01T09:45:49.615Z,1009.40
2017-12-01T09:46:50.122Z,1009.38
2017-12-01T09:48:46.545Z,1009.45
2017-12-01T09:49:45.554Z,1009.42
2017-12-01T09:51:39.504Z,1009.40
2017-12-01T09:52:38.995Z,1009.41
2017-12-01T09:54:34.914Z,1009.38
2017-12-01T09:55:34.915Z,1009.40
2017-12-01T09:57:30.874Z,1009.48
2017-12-01T09:58:31.354Z,1009.42
2017-12-01T10:00:25.270Z,1009.51
2017-12-01T10:01:25.281Z,1009.50
2017-12-01T10:03:19.772Z,1009.50
2017-12-01T10:04:20.658Z,1009.57
2017-12-01T10:06:15.693Z,1009.57
2017-12-01T10:07:15.670Z,1009.59
2017-12-01T10:09:10.111Z,1009.65
2017-12-01T10:10:10.105Z,1009.67
2017-12-01T10:12:06.137Z,1009.68
2017-12-01T10:13:07.067Z,1009.71
2017-12-01T10:15:02.599Z,1009.74
2017-12-01T10:16:02.598Z,1009.76
2017-12-01T10:17:58.542Z,1009.73
2017-12-01T10:18:58.010Z,1009.77
2017-12-01T10:20:53.952Z,1009.78
2017-12-01T10:21:53.931Z,1009.80
2017-12-01T10:23:48.413Z,1009.88
2017-12-01T10:24:48.379Z,1009.88
2017-12-01T10:26:44.360Z,1009.89
2017-12-01T10:27:44.308Z,1009.91
2017-12-01T10:29:40.243Z,1009.89
2017-12-01T10:30:40.231Z,1009.94
2017-12-01T10:32:36.127Z,1009.96
2017-12-01T10:33:36.133Z,1009.91
2017-12-01T10:35:32.066Z,1009.95
2017-12-01T10:36:32.072Z,1009.97
2017-12-01T10:38:28.520Z,1010.01
2017-12-01T10:39:27.991Z,1010.01
2017-12-01T10:41:24.438Z,1009.99
2017-12-01T10:42:23.942Z,1009.96
2017-12-01T10:44:22.002Z,1009.96
2017-12-01T10:45:21.978Z,1009.96
2017-12-01T10:47:16.949Z,1009.97
2017-12-01T10:48:16.407Z,1010.06
2017-12-01T10:50:13.373Z,1010.02
2017-12-01T10:51:12.359Z,1010.03
2017-12-01T10:53:07.303Z,1010.02
2017-12-01T10:54:06.743Z,1010.10
2017-12-01T10:56:02.685Z,1010.10
2017-12-01T10:57:02.668Z,1010.12
2017-12-01T10:58:59.634Z,1010.11
2017-12-01T10:59:58.605Z,1010.12
2017-12-01T11:01:52.062Z,1010.12
2017-12-01T11:02:52.024Z,1010.13
2017-12-01T11:04:46.476Z,1010.16
2017-12-01T11:05:46.469Z,1010.17
2017-12-01T11:07:40.920Z,1010.14
2017-12-01T11:08:40.893Z,1010.15
2017-12-01T11:10:36.841Z,1010.17
2017-12-01T11:11:37.346Z,1010.17
2017-12-01T11:13:32.780Z,1010.18
2017-12-01T11:14:32.765Z,1010.20
2017-12-01T11:16:28.722Z,1010.22
2017-12-01T11:17:28.722Z,1010.24
2017-12-01T11:19:25.151Z,1010.25
2017-12-01T11:20:24.637Z,1010.27
2017-12-01T11:22:21.094Z,1010.28
2017-12-01T11:23:20.527Z,1010.29
2017-12-01T11:25:15.005Z,1010.27
2017-12-01T11:26:14.972Z,1010.29
2017-12-01T11:28:08.415Z,1010.29
2017-12-01T11:29:08.395Z,1010.30
2017-12-01T11:31:04.366Z,1010.31
2017-12-01T11:32:04.853Z,1010.27
2017-12-01T11:34:00.291Z,1010.38
2017-12-01T11:35:00.276Z,1010.36
2017-12-01T11:36:56.228Z,1010.36
2017-12-01T11:37:56.211Z,1010.39
2017-12-01T11:39:50.651Z,1010.41
2017-12-01T11:40:51.164Z,1010.37
2017-12-01T11:42:46.639Z,1010.40
2017-12-01T11:43:46.546Z,1010.44
2017-12-01T11:45:41.496Z,1010.45
2017-12-01T11:46:41.510Z,1010.46
2017-12-01T11:48:36.971Z,1010.43
2017-12-01T11:49:36.933Z,1010.52
2017-12-01T11:51:33.392Z,1010.50
2017-12-01T11:52:33.392Z,1010.51
2017-12-01T11:54:29.839Z,1010.50
2017-12-01T11:55:28.806Z,1010.53
2017-12-01T11:57:24.772Z,1010.56
2017-12-01T11:58:24.726Z,1010.58
2017-12-01T12:00:21.184Z,1010.65
2017-12-01T12:01:20.648Z,1010.66
2017-12-01T12:03:16.620Z,1010.67
2017-12-01T12:04:16.556Z,1010.72
2017-12-01T12:06:13.514Z,1010.76
2017-12-01T12:07:13.028Z,1010.74
2017-12-01T12:09:08.468Z,1010.72
2017-12-01T12:10:09.446Z,1010.77
2017-12-01T12:12:04.397Z,1010.74
2017-12-01T12:13:04.384Z,1010.77
2017-12-01T12:14:58.853Z,1010.75
2017-12-01T12:15:59.337Z,1010.78
2017-12-01T12:17:57.258Z,1010.81
2017-12-01T12:18:56.732Z,1010.80
2017-12-01T12:20:52.706Z,1010.77
2017-12-01T12:21:52.663Z,1010.82
2017-12-01T12:23:51.609Z,1010.82
2017-12-01T12:24:51.114Z,1010.81
2017-12-01T12:26:47.530Z,1010.87
2017-12-01T12:27:46.562Z,1010.89
2017-12-01T12:29:42.520Z,1010.91
2017-12-01T12:30:43.007Z,1010.93
2017-12-01T12:32:38.427Z,1010.91
2017-12-01T12:33:38.959Z,1010.98
2017-12-01T12:35:34.857Z,1010.97
2017-12-01T12:36:34.316Z,1010.98
2017-12-01T12:38:30.264Z,1011.04
2017-12-01T12:39:30.282Z,1011.00
2017-12-01T12:41:26.211Z,1011.06
2017-12-01T12:42:26.703Z,1011.04
2017-12-01T12:44:20.622Z,1011.03
2017-12-01T12:45:21.572Z,1011.05
2017-12-01T12:47:18.587Z,1011.03
2017-12-01T12:48:16.560Z,1011.04
2017-12-01T12:50:14.082Z,1011.08
2017-12-01T12:51:13.028Z,1011.07
2017-12-01T12:53:08.946Z,1011.08
2017-12-01T12:54:08.394Z,1011.12
2017-12-01T12:56:04.320Z,1011.12
2017-12-01T12:58:59.767Z,1011.10
2017-12-01T13:01:53.489Z,1011.19
2017-12-01T13:02:53.503Z,1011.18
2017-12-01T13:04:47.950Z,1011.12
2017-12-01T13:05:46.924Z,1011.18
2017-12-01T13:07:45.876Z,1011.14
2017-12-01T13:08:44.858Z,1011.20
2017-12-01T13:10:40.817Z,1011.22
2017-12-01T13:11:40.809Z,1011.23
2017-12-01T13:13:38.765Z,1011.24
2017-12-01T13:14:38.746Z,1011.18
2017-12-01T13:16:34.661Z,1011.23
2017-12-01T13:17:34.655Z,1011.21
2017-12-01T13:19:33.110Z,1011.24
2017-12-01T13:20:32.614Z,1011.23
2017-12-01T13:22:29.553Z,1011.17
2017-12-01T13:23:28.485Z,1011.20
2017-12-01T13:25:22.960Z,1011.19
2017-12-01T13:26:22.929Z,1011.22
2017-12-01T13:28:24.366Z,1011.21
2017-12-01T13:29:24.370Z,1011.26
2017-12-01T13:31:19.341Z,1011.23
2017-12-01T13:32:19.318Z,1011.24
2017-12-01T13:34:15.286Z,1011.27
2017-12-01T13:35:15.237Z,1011.28
2017-12-01T13:37:11.194Z,1011.24
2017-12-01T13:38:11.167Z,1011.30
2017-12-01T13:40:08.175Z,1011.24
2017-12-01T13:41:07.617Z,1011.31
2017-12-01T13:43:04.044Z,1011.29
2017-12-01T13:44:02.981Z,1011.30
2017-12-01T13:45:57.944Z,1011.31
2017-12-01T13:46:57.931Z,1011.31
2017-12-01T13:48:51.880Z,1011.28
2017-12-01T13:49:51.860Z,1011.28
2017-12-01T13:51:47.779Z,1011.33
2017-12-01T13:52:47.788Z,1011.36
2017-12-01T13:54:47.246Z,1011.32
2017-12-01T13:55:45.740Z,1011.38
2017-12-01T13:57:41.660Z,1011.37
2017-12-01T13:58:41.651Z,1011.39
2017-12-01T14:00:37.612Z,1011.39
2017-12-01T14:01:37.578Z,1011.36
2017-12-01T14:03:35.553Z,1011.43
2017-12-01T14:04:35.511Z,1011.47
2017-12-01T14:06:31.469Z,1011.46
2017-12-01T14:07:31.957Z,1011.50
2017-12-01T14:09:27.392Z,1011.53
2017-12-01T14:10:27.362Z,1011.56
2017-12-01T14:12:23.261Z,1011.54
2017-12-01T14:13:23.265Z,1011.58
2017-12-01T14:15:19.735Z,1011.58
2017-12-01T14:16:19.175Z,1011.60
2017-12-01T14:18:17.178Z,1011.62
2017-12-01T14:19:15.101Z,1011.61
2017-12-01T14:21:11.071Z,1011.59
2017-12-01T14:22:11.076Z,1011.61
2017-12-01T14:24:06.990Z,1011.66
2017-12-01T14:25:07.523Z,1011.64
2017-12-01T14:27:02.920Z,1011.69
2017-12-01T14:28:02.925Z,1011.72
2017-12-01T14:30:00.355Z,1011.77
2017-12-01T14:30:58.832Z,1011.79
2017-12-01T14:32:55.308Z,1011.82
2017-12-01T14:33:54.817Z,1011.84
2017-12-01T14:35:51.691Z,1011.94
2017-12-01T14:36:50.767Z,1011.89
2017-12-01T14:38:49.206Z,1011.96
2017-12-01T14:39:46.694Z,1011.97
2017-12-01T14:41:42.605Z,1012.04
2017-12-01T14:42:42.622Z,1012.03
2017-12-01T14:44:40.592Z,1012.11
2017-12-01T14:45:41.067Z,1012.11
2017-12-01T14:47:34.973Z,1012.12
2017-12-01T14:48:34.978Z,1012.14
2017-12-01T14:50:31.423Z,1012.11
2017-12-01T14:51:30.903Z,1012.14
2017-12-01T14:53:27.864Z,1012.20
2017-12-01T14:54:27.783Z,1012.18
2017-12-01T14:56:22.853Z,1012.20
2017-12-01T14:57:22.820Z,1012.27
2017-12-01T14:59:18.774Z,1012.27
2017-12-01T15:00:18.751Z,1012.29
2017-12-01T15:02:16.715Z,1012.31
2017-12-01T15:03:17.224Z,1012.35
2017-12-01T15:05:12.582Z,1012.39
2017-12-01T15:06:12.573Z,1012.38
2017-12-01T15:08:10.482Z,1012.39
2017-12-01T15:09:10.488Z,1012.47
2017-12-01T15:11:04.979Z,1012.43
2017-12-01T15:12:04.944Z,1012.44
2017-12-01T15:13:59.420Z,1012.49
2017-12-01T15:14:59.367Z,1012.46
2017-12-01T15:16:55.817Z,1012.51
2017-12-01T15:17:55.305Z,1012.44
2017-12-01T15:19:51.746Z,1012.50
2017-12-01T15:20:51.744Z,1012.55
2017-12-01T15:22:49.146Z,1012.57
2017-12-01T15:23:49.148Z,1012.56
2017-12-01T15:25:47.185Z,1012.55
2017-12-01T15:26:47.178Z,1012.59
2017-12-01T15:28:43.633Z,1012.62
2017-12-01T15:29:43.105Z,1012.65
2017-12-01T15:31:39.094Z,1012.68
2017-12-01T15:32:39.997Z,1012.64
2017-12-01T15:34:34.992Z,1012.71
2017-12-01T15:35:34.959Z,1012.70
2017-12-01T15:37:30.924Z,1012.73
2017-12-01T15:38:29.385Z,1012.74
2017-12-01T15:40:25.332Z,1012.83
2017-12-01T15:41:25.326Z,1012.78
2017-12-01T15:43:21.269Z,1012.86
2017-12-01T15:44:21.234Z,1012.85
2017-12-01T15:46:17.171Z,1012.88
2017-12-01T15:47:17.191Z,1012.87
2017-12-01T15:49:13.112Z,1012.91
2017-12-01T15:50:13.116Z,1012.95
2017-12-01T15:52:09.071Z,1012.99
2017-12-01T15:53:09.027Z,1013.00
2017-12-01T15:55:04.958Z,1013.03
2017-12-01T15:56:05.475Z,1013.03
2017-12-01T15:58:01.414Z,1013.03
2017-12-01T15:59:00.886Z,1013.02
2017-12-01T16:00:58.853Z,1013.04
2017-12-01T16:01:58.837Z,1013.04
2017-12-01T16:03:57.686Z,1013.08
2017-12-01T16:04:57.291Z,1013.13
2017-12-01T16:06:55.194Z,1013.12
2017-12-01T16:07:54.799Z,1013.17
2017-12-01T16:09:54.262Z,1013.17
2017-12-01T16:10:52.738Z,1013.20
2017-12-01T16:12:49.697Z,1013.18
2017-12-01T16:13:49.203Z,1013.18
2017-12-01T16:15:46.652Z,1013.19
2017-12-01T16:16:46.612Z,1013.17
2017-12-01T16:18:45.071Z,1013.19
2017-12-01T16:19:44.679Z,1013.22
2017-12-01T16:21:44.180Z,1013.24
2017-12-01T16:22:42.610Z,1013.23
2017-12-01T16:24:39.078Z,1013.24
2017-12-01T16:25:38.569Z,1013.21
2017-12-01T16:27:32.026Z,1013.28
2017-12-01T16:28:32.516Z,1013.30
2017-12-01T16:30:29.971Z,1013.39
2017-12-01T16:31:29.934Z,1013.40
2017-12-01T16:33:28.400Z,1013.43
2017-12-01T16:34:27.968Z,1013.48
2017-12-01T16:36:22.432Z,1013.51
2017-12-01T16:37:22.441Z,1013.54
2017-12-01T16:39:20.867Z,1013.49
2017-12-01T16:40:20.338Z,1013.51
2017-12-01T16:42:18.362Z,1013.55
2017-12-01T16:43:18.393Z,1013.54
2017-12-01T16:45:15.097Z,1013.54
2017-12-01T16:46:15.814Z,1013.62
2017-12-01T16:48:31.852Z,1013.58
2017-12-01T16:49:31.311Z,1013.60
2017-12-01T16:51:50.415Z,1013.71
2017-12-01T16:52:49.669Z,1013.68
2017-12-01T16:55:15.178Z,1013.70
2017-12-01T16:56:13.222Z,1013.75
2017-12-01T16:58:10.174Z,1013.74
2017-12-01T16:59:09.150Z,1013.73
2017-12-01T17:01:05.105Z,1013.77
2017-12-01T17:02:05.083Z,1013.83
2017-12-01T17:03:59.029Z,1013.85
2017-12-01T17:04:58.537Z,1013.84
2017-12-01T17:06:59.093Z,1013.83
2017-12-01T17:07:57.854Z,1013.82
2017-12-01T17:09:52.522Z,1013.84
2017-12-01T17:10:52.513Z,1013.90
2017-12-01T17:12:48.569Z,1013.94
2017-12-01T17:13:48.481Z,1013.98
2017-12-01T17:15:42.928Z,1013.96
2017-12-01T17:16:42.940Z,1013.94
2017-12-01T17:18:39.376Z,1014.00
2017-12-01T17:19:38.841Z,1014.02
2017-12-01T17:21:37.309Z,1013.98
2017-12-01T17:22:36.923Z,1014.03
2017-12-01T17:24:32.869Z,1014.04
2017-12-01T17:25:32.811Z,1014.02
2017-12-01T17:27:28.757Z,1014.04
2017-12-01T17:28:28.734Z,1014.02
2017-12-01T17:30:24.695Z,1014.03
2017-12-01T17:31:24.683Z,1014.13
2017-12-01T17:33:19.114Z,1014.09
2017-12-01T17:34:18.138Z,1014.10
2017-12-01T17:36:14.097Z,1014.19
2017-12-01T17:37:14.059Z,1014.19
2017-12-01T17:39:13.016Z,1014.23
2017-12-01T17:40:09.979Z,1014.23
2017-12-01T17:42:04.940Z,1014.31
2017-12-01T17:43:04.427Z,1014.29
2017-12-01T17:45:00.389Z,1014.23
2017-12-01T17:46:00.872Z,1014.29